createdAt,value
2018-11-23T00:02:06.752Z,72.08
2018-11-23T00:04:33.990Z,71.32
2018-11-23T00:07:01.197Z,71.06
2018-11-23T00:09:28.461Z,70.74
2018-11-23T00:11:55.808Z,71.17
2018-11-23T00:14:23.022Z,70.51
2018-11-23T00:16:50.254Z,70.59
2018-11-23T00:19:17.771Z,71.05
2018-11-23T00:21:44.914Z,71.74
2018-11-23T00:24:12.270Z,71.44
2018-11-23T00:26:39.418Z,71.13
2018-11-23T00:29:06.661Z,70.70
2018-11-23T00:31:33.952Z,71.53
2018-11-23T00:34:01.202Z,71.28
2018-11-23T00:36:28.595Z,72.49
2018-11-23T00:38:55.840Z,72.04
2018-11-23T00:41:23.212Z,72.12
2018-11-23T00:43:50.417Z,72.48
2018-11-23T00:46:18.460Z,72.40
2018-11-23T00:48:45.658Z,71.57
2018-11-23T00:51:12.885Z,72.11
2018-11-23T00:53:40.082Z,71.59
2018-11-23T00:56:07.496Z,71.82
2018-11-23T00:58:34.664Z,71.58
2018-11-23T01:01:01.819Z,71.73
2018-11-23T01:03:29.076Z,71.78
2018-11-23T01:05:56.225Z,72.13
2018-11-23T01:08:23.442Z,72.14
2018-11-23T01:10:50.700Z,71.86
2018-11-23T01:13:17.901Z,71.92
2018-11-23T01:15:45.146Z,71.38
2018-11-23T01:18:12.396Z,71.82
2018-11-23T01:20:39.602Z,72.70
2018-11-23T01:23:07.584Z,72.89
2018-11-23T01:25:34.778Z,73.89
2018-11-23T01:28:02.230Z,73.71
2018-11-23T01:30:30.638Z,73.25
2018-11-23T01:32:57.854Z,73.85
2018-11-23T01:35:25.026Z,73.22
2018-11-23T01:37:52.167Z,73.19
2018-11-23T01:40:22.343Z,72.08
2018-11-23T01:42:49.732Z,71.63
2018-11-23T01:45:16.995Z,72.02
2018-11-23T01:47:44.195Z,71.38
2018-11-23T01:50:15.641Z,71.89
2018-11-23T01:52:43.870Z,72.02
2018-11-23T01:55:12.328Z,72.26
2018-11-23T01:57:40.433Z,73.53
2018-11-23T02:00:10.998Z,73.37
2018-11-23T02:02:38.214Z,73.55
2018-11-23T02:05:05.862Z,73.88
2018-11-23T02:07:33.060Z,74.40
2018-11-23T02:10:00.324Z,73.62
2018-11-23T02:12:27.560Z,72.89
2018-11-23T02:14:54.774Z,73.73
2018-11-23T02:17:23.106Z,73.33
2018-11-23T02:19:51.824Z,72.78
2018-11-23T02:22:19.146Z,72.23
2018-11-23T02:24:46.440Z,72.57
2018-11-23T02:27:13.795Z,72.12
2018-11-23T02:29:40.990Z,71.85
2018-11-23T02:32:08.324Z,71.72
2018-11-23T02:34:35.660Z,72.58
2018-11-23T02:37:03.006Z,72.69
2018-11-23T02:39:30.374Z,72.29
2018-11-23T02:41:57.619Z,71.77
2018-11-23T02:44:24.790Z,72.06
2018-11-23T02:46:52.026Z,71.44
2018-11-23T02:49:19.276Z,71.42
2018-11-23T02:51:46.574Z,72.82
2018-11-23T02:54:13.781Z,72.39
2018-11-23T02:56:43.588Z,71.77
2018-11-23T02:59:12.118Z,72.10
2018-11-23T03:01:39.687Z,72.04
2018-11-23T03:04:07.652Z,71.23
2018-11-23T03:06:35.169Z,71.83
2018-11-23T03:09:02.670Z,72.07
2018-11-23T03:11:29.837Z,72.34
2018-11-23T03:13:57.042Z,72.20
2018-11-23T03:16:24.322Z,71.85
2018-11-23T03:18:52.147Z,72.33
2018-11-23T03:21:20.894Z,72.50
2018-11-23T03:23:52.123Z,72.31
2018-11-23T03:26:22.033Z,73.80
2018-11-23T03:28:50.027Z,73.98
2018-11-23T03:31:17.183Z,74.34
2018-11-23T03:33:44.458Z,73.12
2018-11-23T03:36:11.764Z,73.21
2018-11-23T03:38:47.147Z,72.18
2018-11-23T03:41:15.327Z,73.20
2018-11-23T03:43:42.799Z,72.38
2018-11-23T03:46:10.016Z,73.32
2018-11-23T03:48:38.058Z,73.17
2018-11-23T03:51:05.584Z,73.17
2018-11-23T03:53:32.787Z,72.64
2018-11-23T03:56:00.845Z,72.20
2018-11-23T03:58:28.045Z,71.96
2018-11-23T04:00:55.245Z,73.35
2018-11-23T04:03:22.467Z,72.91
2018-11-23T04:05:49.758Z,72.46
2018-11-23T04:08:16.998Z,72.40
2018-11-23T04:10:44.223Z,72.84
2018-11-23T04:13:11.427Z,72.38
2018-11-23T04:15:38.656Z,72.55
2018-11-23T04:18:05.907Z,73.09
2018-11-23T04:20:35.259Z,71.99
2018-11-23T04:23:02.460Z,71.65
2018-11-23T04:25:30.429Z,71.36
2018-11-23T04:27:57.596Z,71.33
2018-11-23T04:30:24.849Z,71.72
2018-11-23T04:32:52.797Z,71.45
2018-11-23T04:35:20.165Z,71.16
2018-11-23T04:37:47.867Z,71.17
2018-11-23T04:40:16.056Z,71.71
2018-11-23T04:42:43.518Z,71.16
2018-11-23T04:45:11.083Z,71.30
2018-11-23T04:47:40.538Z,72.32
2018-11-23T04:50:09.426Z,72.36
2018-11-23T04:52:36.744Z,71.15
2018-11-23T04:55:04.663Z,71.71
2018-11-23T04:57:31.968Z,72.36
2018-11-23T05:00:07.292Z,71.47
2018-11-23T05:02:34.954Z,71.47
2018-11-23T05:05:03.147Z,71.27
2018-11-23T05:07:31.340Z,70.62
2018-11-23T05:10:00.648Z,70.78
2018-11-23T05:12:27.960Z,70.91
2018-11-23T05:14:55.210Z,70.67
2018-11-23T05:17:22.400Z,71.40
2018-11-23T05:19:49.771Z,71.13
2018-11-23T05:22:17.010Z,70.62
2018-11-23T05:24:44.272Z,70.83
2018-11-23T05:27:11.539Z,71.05
2018-11-23T05:29:38.827Z,71.65
2018-11-23T05:32:05.993Z,71.06
2018-11-23T05:34:33.246Z,72.33
2018-11-23T05:37:00.504Z,72.53
2018-11-23T05:39:27.690Z,71.96
2018-11-23T05:41:54.885Z,71.08
2018-11-23T05:44:23.246Z,70.88
2018-11-23T05:46:50.572Z,71.27
2018-11-23T05:49:17.770Z,70.89
2018-11-23T05:51:44.941Z,71.31
2018-11-23T05:54:12.274Z,71.76
2018-11-23T05:56:39.469Z,71.46
2018-11-23T05:59:06.823Z,71.13
2018-11-23T06:01:34.039Z,71.39
2018-11-23T06:04:01.558Z,71.86
2018-11-23T06:06:28.782Z,71.81
2018-11-23T06:08:56.010Z,72.04
2018-11-23T06:11:23.290Z,71.54
2018-11-23T06:13:50.607Z,71.64
2018-11-23T06:16:17.972Z,70.84
2018-11-23T06:18:46.921Z,70.90
2018-11-23T06:21:14.301Z,70.85
2018-11-23T06:23:41.505Z,70.45
2018-11-23T06:26:13.506Z,70.13
2018-11-23T06:28:40.830Z,70.43
2018-11-23T06:31:08.066Z,70.97
2018-11-23T06:33:41.262Z,70.60
2018-11-23T06:36:08.553Z,70.21
2018-11-23T06:38:35.919Z,70.82
2018-11-23T06:41:10.045Z,71.63
2018-11-23T06:43:30.751Z,70.73
2018-11-23T06:45:59.138Z,71.02
2018-11-23T06:48:26.466Z,71.21
2018-11-23T06:50:55.063Z,71.43
2018-11-23T06:53:22.622Z,71.29
2018-11-23T06:55:50.658Z,72.89
2018-11-23T06:58:17.946Z,72.32
2018-11-23T07:00:45.306Z,71.60
2018-11-23T07:03:12.475Z,71.21
2018-11-23T07:05:40.093Z,71.33
2018-11-23T07:08:08.423Z,70.79
2018-11-23T07:10:35.677Z,70.75
2018-11-23T07:13:03.003Z,70.97
2018-11-23T07:15:32.470Z,70.61
2018-11-23T07:17:59.762Z,70.65
2018-11-23T07:20:28.959Z,69.99
2018-11-23T07:22:56.549Z,71.03
2018-11-23T07:25:23.802Z,70.53
2018-11-23T07:27:51.284Z,70.81
2018-11-23T07:30:22.980Z,70.43
2018-11-23T07:32:50.152Z,69.91
2018-11-23T07:35:17.825Z,69.83
2018-11-23T07:37:45.140Z,70.07
2018-11-23T07:40:25.838Z,70.11
2018-11-23T07:42:53.627Z,70.17
2018-11-23T07:45:21.138Z,70.50
2018-11-23T07:47:49.002Z,70.31
2018-11-23T07:50:16.241Z,71.59
2018-11-23T07:52:43.828Z,71.02
2018-11-23T07:55:11.984Z,71.09
2018-11-23T07:57:40.078Z,71.30
2018-11-23T08:00:14.171Z,70.46
2018-11-23T08:02:41.944Z,70.61
2018-11-23T08:05:10.947Z,70.69
2018-11-23T08:07:38.505Z,71.12
2018-11-23T08:10:08.522Z,70.22
2018-11-23T08:12:35.764Z,71.05
2018-11-23T08:15:03.034Z,70.34
2018-11-23T08:17:30.523Z,71.27
2018-11-23T08:19:57.924Z,70.97
2018-11-23T08:22:25.160Z,71.51
2018-11-23T08:24:55.150Z,71.48
2018-11-23T08:27:22.423Z,71.10
2018-11-23T08:29:49.657Z,71.22
2018-11-23T08:32:16.867Z,71.71
2018-11-23T08:34:44.104Z,70.82
2018-11-23T08:37:11.335Z,70.92
2018-11-23T08:39:38.625Z,71.60
2018-11-23T08:42:06.040Z,70.88
2018-11-23T08:44:33.335Z,70.95
2018-11-23T08:47:00.686Z,71.57
2018-11-23T08:49:27.902Z,71.60
2018-11-23T08:51:55.155Z,71.73
2018-11-23T08:54:22.448Z,72.27
2018-11-23T08:56:49.657Z,72.09
2018-11-23T08:59:16.851Z,72.86
2018-11-23T09:01:44.096Z,73.27
2018-11-23T09:04:11.335Z,72.75
2018-11-23T09:06:39.275Z,73.11
2018-11-23T09:09:08.877Z,73.02
2018-11-23T09:11:36.080Z,73.00
2018-11-23T09:14:04.464Z,72.23
2018-11-23T09:16:31.691Z,72.06
2018-11-23T09:18:59.236Z,72.54
2018-11-23T09:21:26.393Z,71.26
2018-11-23T09:23:54.022Z,72.56
2018-11-23T09:26:21.340Z,72.05
2018-11-23T09:28:48.547Z,72.14
2018-11-23T09:31:15.953Z,72.60
2018-11-23T09:33:43.311Z,71.68
2018-11-23T09:36:10.498Z,71.58
2018-11-23T09:38:37.741Z,71.10
2018-11-23T09:41:05.581Z,71.56
2018-11-23T09:43:32.819Z,71.41
2018-11-23T09:46:00.111Z,71.34
2018-11-23T09:48:27.337Z,70.75
2018-11-23T09:50:55.209Z,71.00
2018-11-23T09:53:23.652Z,70.93
2018-11-23T09:55:52.678Z,71.30
2018-11-23T09:58:20.101Z,70.38
2018-11-23T10:00:47.491Z,70.32
2018-11-23T10:03:14.824Z,70.61
2018-11-23T10:05:42.276Z,69.03
2018-11-23T10:08:09.539Z,68.68
2018-11-23T10:10:38.123Z,69.70
2018-11-23T10:13:05.806Z,69.64
2018-11-23T10:15:33.639Z,69.43
2018-11-23T10:18:02.689Z,70.23
2018-11-23T10:20:31.560Z,70.17
2018-11-23T10:22:58.998Z,69.83
2018-11-23T10:25:27.782Z,70.65
2018-11-23T10:27:55.196Z,70.90
2018-11-23T10:30:24.697Z,70.81
2018-11-23T10:32:53.402Z,71.69
2018-11-23T10:35:22.391Z,71.46
2018-11-23T10:37:51.211Z,71.50
2018-11-23T10:40:20.208Z,71.99
2018-11-23T10:42:47.843Z,72.13
2018-11-23T10:45:18.064Z,72.24
2018-11-23T10:47:45.873Z,72.49
2018-11-23T10:50:15.461Z,72.20
2018-11-23T10:52:43.039Z,71.91
2018-11-23T10:55:13.116Z,71.60
2018-11-23T10:57:40.691Z,71.86
2018-11-23T11:00:15.451Z,71.49
2018-11-23T11:02:43.345Z,71.25
2018-11-23T11:05:16.373Z,70.78
2018-11-23T11:07:43.962Z,70.92
2018-11-23T11:10:11.399Z,70.84
2018-11-23T11:12:38.964Z,70.55
2018-11-23T11:15:06.985Z,70.52
2018-11-23T11:17:34.279Z,70.07
2018-11-23T11:20:01.759Z,69.97
2018-11-23T11:22:29.387Z,70.09
2018-11-23T11:24:56.959Z,70.33
2018-11-23T11:27:24.699Z,70.30
2018-11-23T11:29:52.021Z,70.12
2018-11-23T11:32:19.301Z,69.85
2018-11-23T11:34:46.691Z,69.45
2018-11-23T11:37:13.931Z,69.52
2018-11-23T11:39:41.872Z,69.06
2018-11-23T11:42:09.583Z,69.30
2018-11-23T11:44:37.094Z,69.29
2018-11-23T11:47:05.127Z,69.00
2018-11-23T11:49:32.379Z,68.71
2018-11-23T11:51:59.595Z,68.94
2018-11-23T11:54:26.951Z,68.48
2018-11-23T11:56:54.261Z,67.86
2018-11-23T11:59:21.771Z,67.86
2018-11-23T12:01:49.230Z,67.65
2018-11-23T12:04:16.464Z,67.39
2018-11-23T12:06:44.442Z,67.37
2018-11-23T12:09:11.873Z,67.29
2018-11-23T12:11:39.638Z,66.90
2018-11-23T12:14:07.102Z,66.31
2018-11-23T12:16:34.378Z,65.88
2018-11-23T12:19:01.922Z,65.94
2018-11-23T12:21:29.176Z,65.87
2018-11-23T12:23:56.644Z,65.70
2018-11-23T12:26:24.606Z,65.12
2018-11-23T12:28:51.807Z,64.83
2018-11-23T12:31:18.992Z,64.03
2018-11-23T12:33:46.669Z,64.52
2018-11-23T12:36:14.019Z,64.64
2018-11-23T12:38:43.131Z,64.60
2018-11-23T12:41:09.432Z,64.52
2018-11-23T12:43:36.862Z,63.95
2018-11-23T12:46:04.263Z,63.25
2018-11-23T12:48:32.140Z,63.25
2018-11-23T12:50:59.588Z,63.96
2018-11-23T12:53:26.833Z,63.74
2018-11-23T12:55:54.072Z,63.62
2018-11-23T12:58:21.343Z,62.74
2018-11-23T13:00:48.761Z,62.08
2018-11-23T13:03:16.259Z,62.04
2018-11-23T13:05:43.878Z,62.35
2018-11-23T13:08:11.280Z,61.95
2018-11-23T13:10:38.537Z,61.87
2018-11-23T13:13:06.043Z,61.37
2018-11-23T13:15:33.552Z,61.91
2018-11-23T13:18:01.220Z,60.73
2018-11-23T13:20:28.619Z,59.95
2018-11-23T13:22:55.901Z,60.53
2018-11-23T13:25:25.219Z,60.31
2018-11-23T13:27:52.642Z,60.23
2018-11-23T13:30:25.559Z,60.24
2018-11-23T13:32:52.792Z,59.73
2018-11-23T13:35:20.371Z,59.98
2018-11-23T13:37:47.698Z,60.51
2018-11-23T13:40:16.272Z,60.67
2018-11-23T13:42:43.981Z,60.61
2018-11-23T13:45:12.667Z,61.39
2018-11-23T13:47:40.217Z,61.92
2018-11-23T13:50:09.522Z,62.50
2018-11-23T13:52:36.850Z,62.61
2018-11-23T13:55:04.864Z,62.84
2018-11-23T13:57:32.196Z,63.08
2018-11-23T13:59:59.674Z,63.37
2018-11-23T14:02:27.179Z,63.59
2018-11-23T14:04:54.692Z,63.85
2018-11-23T14:07:22.642Z,64.15
2018-11-23T14:09:50.127Z,64.18
2018-11-23T14:12:18.090Z,64.18
2018-11-23T14:14:45.320Z,64.23
2018-11-23T14:17:12.541Z,64.88
2018-11-23T14:19:39.789Z,64.98
2018-11-23T14:22:07.244Z,64.90
2018-11-23T14:24:34.560Z,65.19
2018-11-23T14:27:01.782Z,65.44
2018-11-23T14:29:29.135Z,65.58
2018-11-23T14:31:56.602Z,65.90
2018-11-23T14:34:23.971Z,66.05
2018-11-23T14:36:51.205Z,66.01
2018-11-23T14:39:18.568Z,66.30
2018-11-23T14:41:45.922Z,66.58
2018-11-23T14:44:13.303Z,66.47
2018-11-23T14:46:40.632Z,66.38
2018-11-23T14:49:07.899Z,66.25
2018-11-23T14:51:35.162Z,66.68
2018-11-23T14:54:02.384Z,66.73
2018-11-23T14:56:31.782Z,66.50
2018-11-23T14:58:58.996Z,67.13
2018-11-23T15:01:26.522Z,67.56
2018-11-23T15:03:53.880Z,67.69
2018-11-23T15:06:22.067Z,67.58
2018-11-23T15:08:50.183Z,67.57
2018-11-23T15:11:18.184Z,67.56
2018-11-23T15:13:47.047Z,67.51
2018-11-23T15:16:14.283Z,67.17
2018-11-23T15:18:41.920Z,67.58
2018-11-23T15:21:09.147Z,67.58
2018-11-23T15:23:36.772Z,67.54
2018-11-23T15:26:04.655Z,67.59
2018-11-23T15:28:32.072Z,67.34
2018-11-23T15:30:59.246Z,67.67
2018-11-23T15:33:26.513Z,67.77
2018-11-23T15:35:53.794Z,67.85
2018-11-23T15:38:22.264Z,67.79
2018-11-23T15:40:49.458Z,68.06
2018-11-23T15:43:17.761Z,68.06
2018-11-23T15:45:44.944Z,68.44
2018-11-23T15:48:12.324Z,68.73
2018-11-23T15:50:40.883Z,69.02
2018-11-23T15:53:09.859Z,69.09
2018-11-23T15:55:38.546Z,69.12
2018-11-23T15:58:07.622Z,69.23
2018-11-23T16:00:37.839Z,69.44
2018-11-23T16:03:06.962Z,69.50
2018-11-23T16:05:34.548Z,69.42
2018-11-23T16:08:03.261Z,69.93
2018-11-23T16:10:32.081Z,70.03
2018-11-23T16:13:00.475Z,70.06
2018-11-23T16:15:28.531Z,69.86
2018-11-23T16:17:56.395Z,69.91
2018-11-23T16:20:26.367Z,70.33
2018-11-23T16:22:56.136Z,70.32
2018-11-23T16:25:24.501Z,70.86
2018-11-23T16:27:54.073Z,71.17
2018-11-23T16:30:22.621Z,70.89
2018-11-23T16:32:51.444Z,71.53
2018-11-23T16:35:21.930Z,71.12
2018-11-23T16:37:50.098Z,71.40
2018-11-23T16:40:19.331Z,71.07
2018-11-23T16:42:47.051Z,71.06
2018-11-23T16:45:16.900Z,70.73
2018-11-23T16:47:44.671Z,71.12
2018-11-23T16:50:12.488Z,70.98
2018-11-23T16:52:40.554Z,71.36
2018-11-23T16:55:09.451Z,71.29
2018-11-23T16:57:37.082Z,71.32
2018-11-23T17:00:08.919Z,71.40
2018-11-23T17:02:36.501Z,71.66
2018-11-23T17:05:03.822Z,71.88
2018-11-23T17:07:31.134Z,71.95
2018-11-23T17:09:58.447Z,71.84
2018-11-23T17:12:26.240Z,71.71
2018-11-23T17:14:53.460Z,72.00
2018-11-23T17:17:22.454Z,71.91
2018-11-23T17:19:49.727Z,72.63
2018-11-23T17:22:16.897Z,72.49
2018-11-23T17:24:44.428Z,72.60
2018-11-23T17:27:11.810Z,72.17
2018-11-23T17:29:39.219Z,72.21
2018-11-23T17:32:06.494Z,72.09
2018-11-23T17:34:34.771Z,72.22
2018-11-23T17:37:02.269Z,72.25
2018-11-23T17:39:31.408Z,72.02
2018-11-23T17:41:58.913Z,71.85
2018-11-23T17:44:26.224Z,71.96
2018-11-23T17:46:53.461Z,71.57
2018-11-23T17:49:20.937Z,71.95
2018-11-23T17:51:48.134Z,72.47
2018-11-23T17:54:15.478Z,73.15
2018-11-23T17:56:42.763Z,72.60
2018-11-23T17:59:10.420Z,73.06
2018-11-23T18:01:37.689Z,72.73
2018-11-23T18:04:04.951Z,73.05
2018-11-23T18:06:32.954Z,72.93
2018-11-23T18:09:00.625Z,73.36
2018-11-23T18:11:28.100Z,72.93
2018-11-23T18:13:56.023Z,72.67
2018-11-23T18:16:23.280Z,72.55
2018-11-23T18:18:50.557Z,72.58
2018-11-23T18:21:17.822Z,72.31
2018-11-23T18:23:45.074Z,72.19
2018-11-23T18:26:12.307Z,72.23
2018-11-23T18:28:40.306Z,72.41
2018-11-23T18:31:07.600Z,72.64
2018-11-23T18:33:34.819Z,72.27
2018-11-23T18:36:02.244Z,72.08
2018-11-23T18:38:29.486Z,71.89
2018-11-23T18:40:56.665Z,72.17
2018-11-23T18:43:23.871Z,71.82
2018-11-23T18:45:51.107Z,72.47
2018-11-23T18:48:18.439Z,72.23
2018-11-23T18:50:45.686Z,72.84
2018-11-23T18:53:13.080Z,72.69
2018-11-23T18:55:40.287Z,71.96
2018-11-23T18:58:07.507Z,72.38
2018-11-23T19:00:35.046Z,72.45
2018-11-23T19:03:02.302Z,73.11
2018-11-23T19:05:29.665Z,73.05
2018-11-23T19:07:56.994Z,72.75
2018-11-23T19:10:24.277Z,72.30
2018-11-23T19:12:51.633Z,72.46
2018-11-23T19:15:25.117Z,72.92
2018-11-23T19:17:46.237Z,72.16
2018-11-23T19:20:21.216Z,72.73
2018-11-23T19:22:49.751Z,72.79
2018-11-23T19:25:17.058Z,72.52
2018-11-23T19:27:44.411Z,72.80
2018-11-23T19:30:13.368Z,73.28
2018-11-23T19:32:40.711Z,73.64
2018-11-23T19:35:10.110Z,73.27
2018-11-23T19:37:38.290Z,73.56
2018-11-23T19:40:16.082Z,74.45
2018-11-23T19:42:45.171Z,75.12
2018-11-23T19:45:14.308Z,75.57
2018-11-23T19:47:42.293Z,75.76
2018-11-23T19:50:15.406Z,75.21
2018-11-23T19:52:42.654Z,75.00
2018-11-23T19:55:11.269Z,75.17
2018-11-23T19:57:38.573Z,75.32
2018-11-23T20:00:15.617Z,75.41
2018-11-23T20:02:43.915Z,74.79
2018-11-23T20:05:11.619Z,74.68
2018-11-23T20:07:39.446Z,74.88
2018-11-23T20:10:15.707Z,74.80
2018-11-23T20:12:44.563Z,74.96
2018-11-23T20:15:14.721Z,74.96
2018-11-23T20:17:42.120Z,75.17
2018-11-23T20:20:10.713Z,75.53
2018-11-23T20:22:38.400Z,74.71
2018-11-23T20:25:10.410Z,75.27
2018-11-23T20:27:37.564Z,75.10
2018-11-23T20:30:09.053Z,74.89
2018-11-23T20:32:36.626Z,75.50
2018-11-23T20:35:05.252Z,74.88
2018-11-23T20:37:32.504Z,75.76
2018-11-23T20:40:00.009Z,75.60
2018-11-23T20:42:27.893Z,76.19
2018-11-23T20:44:55.348Z,75.40
2018-11-23T20:47:22.979Z,75.08
2018-11-23T20:49:50.920Z,75.03
2018-11-23T20:52:18.495Z,74.47
2018-11-23T20:54:46.204Z,74.30
2018-11-23T20:57:13.908Z,74.93
2018-11-23T20:59:41.642Z,75.10
2018-11-23T21:02:09.192Z,75.38
2018-11-23T21:04:36.765Z,74.90
2018-11-23T21:07:04.832Z,74.86
2018-11-23T21:09:32.527Z,74.67
2018-11-23T21:12:00.249Z,75.00
2018-11-23T21:14:27.823Z,75.59
2018-11-23T21:16:55.484Z,75.85
2018-11-23T21:19:23.041Z,75.68
2018-11-23T21:21:50.681Z,75.50
2018-11-23T21:24:18.272Z,75.36
2018-11-23T21:26:46.740Z,75.20
2018-11-23T21:29:14.698Z,76.21
2018-11-23T21:31:42.376Z,76.39
2018-11-23T21:34:12.962Z,75.48
2018-11-23T21:36:40.577Z,75.32
2018-11-23T21:39:13.728Z,75.39
2018-11-23T21:41:37.442Z,74.85
2018-11-23T21:44:04.965Z,74.58
2018-11-23T21:46:32.192Z,75.12
2018-11-23T21:48:59.507Z,75.54
2018-11-23T21:51:26.803Z,75.35
2018-11-23T21:53:54.289Z,75.13
2018-11-23T21:56:21.524Z,75.89
2018-11-23T21:58:48.899Z,75.63
2018-11-23T22:01:16.164Z,76.61
2018-11-23T22:03:43.338Z,76.25
2018-11-23T22:06:10.582Z,76.22
2018-11-23T22:08:37.759Z,75.83
2018-11-23T22:11:05.329Z,75.48
2018-11-23T22:13:32.587Z,76.17
2018-11-23T22:15:59.839Z,76.07
2018-11-23T22:18:27.092Z,75.92
2018-11-23T22:20:54.289Z,75.47
2018-11-23T22:23:21.592Z,75.37
2018-11-23T22:25:48.874Z,75.76
2018-11-23T22:28:16.134Z,74.96
2018-11-23T22:30:43.688Z,75.85
2018-11-23T22:33:11.994Z,75.58
2018-11-23T22:35:39.325Z,75.89
2018-11-23T22:38:07.011Z,75.78
2018-11-23T22:40:34.342Z,75.89
2018-11-23T22:43:01.565Z,75.75
2018-11-23T22:45:28.762Z,76.14
2018-11-23T22:47:55.966Z,75.75
2018-11-23T22:50:24.490Z,75.48
2018-11-23T22:52:51.726Z,75.16
2018-11-23T22:55:19.858Z,75.13
2018-11-23T22:57:47.059Z,75.41
2018-11-23T23:00:23.387Z,75.48
2018-11-23T23:02:51.246Z,76.84
2018-11-23T23:05:19.543Z,76.46
2018-11-23T23:07:46.738Z,75.44
2018-11-23T23:10:13.969Z,76.52
2018-11-23T23:12:41.225Z,76.17
2018-11-23T23:15:09.972Z,76.68
2018-11-23T23:17:37.790Z,76.40
2018-11-23T23:20:07.936Z,76.41
2018-11-23T23:22:35.239Z,75.93
2018-11-23T23:25:02.472Z,75.96
2018-11-23T23:27:29.714Z,77.75
2018-11-23T23:29:57.082Z,76.93
2018-11-23T23:32:26.228Z,77.01
2018-11-23T23:34:53.657Z,76.72
2018-11-23T23:37:21.176Z,76.76
2018-11-23T23:39:48.415Z,76.88
2018-11-23T23:42:15.809Z,77.23
2018-11-23T23:44:43.128Z,77.51
2018-11-23T23:47:10.807Z,77.61
2018-11-23T23:49:41.559Z,77.03
2018-11-23T23:52:09.057Z,76.94
2018-11-23T23:54:36.391Z,76.30
2018-11-23T23:57:03.585Z,77.57
2018-11-23T23:59:30.977Z,76.85
